sensor_id;sensor_type;location;lat;lon;timestamp;pressure;altitude;pressure_sealevel;temperature;humidity
39949;BME280;29070;48.102;-1.652;2023-01-16T00:04:28;98580.06;;;7.72;80.44
39949;BME280;29070;48.102;-1.652;2023-01-16T00:09:29;98578.38;;;7.66;80.08
39949;BME280;29070;48.102;-1.652;2023-01-16T00:14:30;98557.50;;;7.66;80.30
39949;BME280;29070;48.102;-1.652;2023-01-16T00:19:31;98544.31;;;7.60;80.48
39949;BME280;29070;48.102;-1.652;2023-01-16T00:24:31;98516.06;;;7.57;80.16
39949;BME280;29070;48.102;-1.652;2023-01-16T00:29:32;98516.41;;;7.49;80.09
39949;BME280;29070;48.102;-1.652;2023-01-16T00:34:32;98519.50;;;7.46;80.18
39949;BME280;29070;48.102;-1.652;2023-01-16T00:39:33;98499.63;;;7.45;80.21
39949;BME280;29070;48.102;-1.652;2023-01-16T00:44:33;98492.00;;;7.43;79.86
39949;BME280;29070;48.102;-1.652;2023-01-16T00:49:34;98479.53;;;7.45;80.17
39949;BME280;29070;48.102;-1.652;2023-01-16T00:54:35;98468.28;;;7.45;79.85
39949;BME280;29070;48.102;-1.652;2023-01-16T00:59:35;98455.81;;;7.47;79.79
39949;BME280;29070;48.102;-1.652;2023-01-16T01:04:35;98433.34;;;7.46;80.00
39949;BME280;29070;48.102;-1.652;2023-01-16T01:09:37;98431.75;;;7.45;79.83
39949;BME280;29070;48.102;-1.652;2023-01-16T01:14:38;98418.94;;;7.43;80.06
39949;BME280;29070;48.102;-1.652;2023-01-16T01:19:38;98399.31;;;7.41;80.06
39949;BME280;29070;48.102;-1.652;2023-01-16T01:24:38;98385.16;;;7.37;79.31
39949;BME280;29070;48.102;-1.652;2023-01-16T01:29:39;98370.50;;;7.36;78.92
39949;BME280;29070;48.102;-1.652;2023-01-16T01:34:39;98354.84;;;7.36;78.91
39949;BME280;29070;48.102;-1.652;2023-01-16T01:39:39;98344.66;;;7.34;79.01
39949;BME280;29070;48.102;-1.652;2023-01-16T01:44:55;98327.16;;;7.35;78.57
39949;BME280;29070;48.102;-1.652;2023-01-16T01:49:57;98324.31;;;7.36;78.72
39949;BME280;29070;48.102;-1.652;2023-01-16T01:55:03;98293.25;;;7.35;78.83
39949;BME280;29070;48.102;-1.652;2023-01-16T02:00:09;98280.19;;;7.35;78.56
39949;BME280;29070;48.102;-1.652;2023-01-16T02:05:12;98267.97;;;7.35;78.25
39949;BME280;29070;48.102;-1.652;2023-01-16T02:10:30;98247.78;;;7.31;78.46
39949;BME280;29070;48.102;-1.652;2023-01-16T02:15:33;98240.97;;;7.30;77.89
39949;BME280;29070;48.102;-1.652;2023-01-16T02:42:33;98194.50;;;7.27;78.14
39949;BME280;29070;48.102;-1.652;2023-01-16T02:47:58;98192.56;;;7.22;77.86
39949;BME280;29070;48.102;-1.652;2023-01-16T02:53:22;98183.41;;;7.19;77.97
39949;BME280;29070;48.102;-1.652;2023-01-16T02:58:27;98166.72;;;7.20;78.12
39949;BME280;29070;48.102;-1.652;2023-01-16T03:19:19;98163.38;;;7.08;78.00
39949;BME280;29070;48.102;-1.652;2023-01-16T03:24:35;98153.75;;;7.09;77.85
39949;BME280;29070;48.102;-1.652;2023-01-16T03:30:08;98138.88;;;7.09;78.03
39949;BME280;29070;48.102;-1.652;2023-01-16T03:35:12;98131.28;;;7.07;77.85
39949;BME280;29070;48.102;-1.652;2023-01-16T03:40:18;98140.72;;;7.09;77.95
39949;BME280;29070;48.102;-1.652;2023-01-16T03:45:28;98122.69;;;7.07;77.95
39949;BME280;29070;48.102;-1.652;2023-01-16T03:50:34;98136.75;;;7.06;77.80
39949;BME280;29070;48.102;-1.652;2023-01-16T04:01:12;98128.19;;;6.94;78.24
39949;BME280;29070;48.102;-1.652;2023-01-16T04:06:20;98164.06;;;6.86;78.64
39949;BME280;29070;48.102;-1.652;2023-01-16T04:11:25;98157.28;;;6.85;78.64
39949;BME280;29070;48.102;-1.652;2023-01-16T04:16:26;98163.72;;;6.83;78.71
39949;BME280;29070;48.102;-1.652;2023-01-16T04:21:29;98214.53;;;6.80;79.26
39949;BME280;29070;48.102;-1.652;2023-01-16T04:26:31;98207.50;;;6.81;79.14
39949;BME280;29070;48.102;-1.652;2023-01-16T04:31:31;98246.94;;;6.84;79.10
39949;BME280;29070;48.102;-1.652;2023-01-16T04:36:32;98250.34;;;6.85;79.15
39949;BME280;29070;48.102;-1.652;2023-01-16T04:41:32;98264.06;;;6.80;79.32
39949;BME280;29070;48.102;-1.652;2023-01-16T04:46:36;98291.53;;;6.71;79.49
39949;BME280;29070;48.102;-1.652;2023-01-16T04:51:38;98297.19;;;6.68;79.24
39949;BME280;29070;48.102;-1.652;2023-01-16T04:56:38;98295.72;;;6.60;79.37
39949;BME280;29070;48.102;-1.652;2023-01-16T05:01:39;98312.59;;;6.58;79.72
39949;BME280;29070;48.102;-1.652;2023-01-16T05:06:40;98335.50;;;6.56;79.64
39949;BME280;29070;48.102;-1.652;2023-01-16T05:11:40;98341.16;;;6.53;79.73
39949;BME280;29070;48.102;-1.652;2023-01-16T05:16:41;98343.53;;;6.54;79.72
39949;BME280;29070;48.102;-1.652;2023-01-16T05:21:42;98365.75;;;6.57;79.78
39949;BME280;29070;48.102;-1.652;2023-01-16T05:26:42;98394.88;;;6.54;79.55
39949;BME280;29070;48.102;-1.652;2023-01-16T05:31:43;98417.75;;;6.52;79.90
39949;BME280;29070;48.102;-1.652;2023-01-16T05:36:43;98438.50;;;6.46;80.10
39949;BME280;29070;48.102;-1.652;2023-01-16T05:41:43;98466.25;;;6.41;79.69
39949;BME280;29070;48.102;-1.652;2023-01-16T05:46:44;98481.19;;;6.34;79.68
39949;BME280;29070;48.102;-1.652;2023-01-16T05:51:44;98500.50;;;6.26;79.93
39949;BME280;29070;48.102;-1.652;2023-01-16T05:56:44;98502.66;;;6.17;79.71
39949;BME280;29070;48.102;-1.652;2023-01-16T06:01:45;98501.94;;;6.10;79.62
39949;BME280;29070;48.102;-1.652;2023-01-16T06:06:45;98516.19;;;6.07;79.93
39949;BME280;29070;48.102;-1.652;2023-01-16T06:11:46;98523.41;;;6.05;79.69
39949;BME280;29070;48.102;-1.652;2023-01-16T06:16:46;98552.06;;;6.05;79.80
39949;BME280;29070;48.102;-1.652;2023-01-16T06:21:46;98551.13;;;6.00;79.70
39949;BME280;29070;48.102;-1.652;2023-01-16T06:26:47;98547.78;;;5.92;79.70
39949;BME280;29070;48.102;-1.652;2023-01-16T06:31:47;98579.59;;;5.95;79.76
39949;BME280;29070;48.102;-1.652;2023-01-16T06:36:48;98601.88;;;5.90;79.17
39949;BME280;29070;48.102;-1.652;2023-01-16T06:41:48;98609.47;;;5.92;79.19
39949;BME280;29070;48.102;-1.652;2023-01-16T06:46:49;98611.06;;;5.93;79.02
39949;BME280;29070;48.102;-1.652;2023-01-16T06:51:49;98627.72;;;5.92;79.25
39949;BME280;29070;48.102;-1.652;2023-01-16T06:56:49;98627.25;;;5.95;79.54
39949;BME280;29070;48.102;-1.652;2023-01-16T07:01:50;98637.88;;;5.93;79.52
39949;BME280;29070;48.102;-1.652;2023-01-16T07:06:50;98659.16;;;5.90;79.18
39949;BME280;29070;48.102;-1.652;2023-01-16T07:11:51;98667.19;;;5.89;79.21
39949;BME280;29070;48.102;-1.652;2023-01-16T07:16:51;98679.25;;;5.83;79.49
39949;BME280;29070;48.102;-1.652;2023-01-16T07:22:13;98692.47;;;5.82;79.49
39949;BME280;29070;48.102;-1.652;2023-01-16T07:27:33;98704.91;;;5.80;79.43
39949;BME280;29070;48.102;-1.652;2023-01-16T07:32:34;98730.94;;;5.80;79.43
39949;BME280;29070;48.102;-1.652;2023-01-16T07:37:34;98728.72;;;5.83;79.32
39949;BME280;29070;48.102;-1.652;2023-01-16T07:42:35;98747.09;;;5.88;79.45
39949;BME280;29070;48.102;-1.652;2023-01-16T07:47:35;98745.72;;;5.86;79.20
39949;BME280;29070;48.102;-1.652;2023-01-16T07:52:35;98759.16;;;5.83;79.50
39949;BME280;29070;48.102;-1.652;2023-01-16T07:57:37;98777.38;;;5.83;79.25
39949;BME280;29070;48.102;-1.652;2023-01-16T08:02:39;98783.38;;;5.83;79.65
39949;BME280;29070;48.102;-1.652;2023-01-16T08:07:39;98797.56;;;5.87;79.51
39949;BME280;29070;48.102;-1.652;2023-01-16T08:12:40;98836.59;;;5.94;79.58
39949;BME280;29070;48.102;-1.652;2023-01-16T08:17:40;98851.41;;;5.93;80.04
39949;BME280;29070;48.102;-1.652;2023-01-16T08:22:45;98874.31;;;5.85;80.21
39949;BME280;29070;48.102;-1.652;2023-01-16T08:27:46;98870.91;;;5.78;80.06
39949;BME280;29070;48.102;-1.652;2023-01-16T08:32:46;98871.75;;;5.71;79.91
39949;BME280;29070;48.102;-1.652;2023-01-16T08:37:50;98885.00;;;5.63;79.91
39949;BME280;29070;48.102;-1.652;2023-01-16T08:42:50;98903.88;;;5.59;80.09
39949;BME280;29070;48.102;-1.652;2023-01-16T08:48:09;98910.25;;;5.56;80.15
39949;BME280;29070;48.102;-1.652;2023-01-16T08:53:29;98909.84;;;5.66;80.11
39949;BME280;29070;48.102;-1.652;2023-01-16T08:58:29;98930.59;;;5.79;80.53
39949;BME280;29070;48.102;-1.652;2023-01-16T09:03:31;98927.00;;;5.80;80.17
39949;BME280;29070;48.102;-1.652;2023-01-16T09:08:33;98939.81;;;5.82;80.24
39949;BME280;29070;48.102;-1.652;2023-01-16T09:13:34;98931.78;;;5.83;80.52
39949;BME280;29070;48.102;-1.652;2023-01-16T09:18:50;98936.41;;;5.81;80.31
39949;BME280;29070;48.102;-1.652;2023-01-16T09:23:51;98954.84;;;5.80;80.33
39949;BME280;29070;48.102;-1.652;2023-01-16T09:28:51;98947.03;;;5.80;80.55
39949;BME280;29070;48.102;-1.652;2023-01-16T09:33:52;98962.59;;;5.86;80.53
39949;BME280;29070;48.102;-1.652;2023-01-16T09:38:54;98965.97;;;5.93;80.86
39949;BME280;29070;48.102;-1.652;2023-01-16T09:43:55;98995.66;;;5.99;81.00
39949;BME280;29070;48.102;-1.652;2023-01-16T09:48:59;98982.56;;;6.06;80.92
39949;BME280;29070;48.102;-1.652;2023-01-16T09:54:11;98992.78;;;6.07;80.77
39949;BME280;29070;48.102;-1.652;2023-01-16T10:04:37;99005.75;;;6.21;81.08
39949;BME280;29070;48.102;-1.652;2023-01-16T10:09:59;99014.50;;;6.33;81.17
39949;BME280;29070;48.102;-1.652;2023-01-16T10:15:16;99013.25;;;6.42;81.18
39949;BME280;29070;48.102;-1.652;2023-01-16T10:26:03;99027.06;;;6.43;80.96
39949;BME280;29070;48.102;-1.652;2023-01-16T10:31:29;99028.03;;;6.48;80.76
39949;BME280;29070;48.102;-1.652;2023-01-16T10:36:36;99031.97;;;6.58;80.73
39949;BME280;29070;48.102;-1.652;2023-01-16T10:41:48;99042.00;;;6.61;80.59
39949;BME280;29070;48.102;-1.652;2023-01-16T10:47:12;99057.63;;;6.61;79.96
39949;BME280;29070;48.102;-1.652;2023-01-16T10:52:32;99073.03;;;6.69;80.32
39949;BME280;29070;48.102;-1.652;2023-01-16T10:57:33;99076.56;;;6.81;80.14
39949;BME280;29070;48.102;-1.652;2023-01-16T11:02:40;99066.72;;;6.83;79.82
39949;BME280;29070;48.102;-1.652;2023-01-16T11:07:40;99079.13;;;6.88;79.82
39949;BME280;29070;48.102;-1.652;2023-01-16T11:12:41;99076.28;;;6.96;79.61
39949;BME280;29070;48.102;-1.652;2023-01-16T11:18:00;99069.78;;;7.05;79.85
39949;BME280;29070;48.102;-1.652;2023-01-16T11:23:25;99075.38;;;7.09;79.55
39949;BME280;29070;48.102;-1.652;2023-01-16T11:28:28;99071.97;;;7.34;79.74
39949;BME280;29070;48.102;-1.652;2023-01-16T11:33:39;99075.38;;;7.53;79.46
39949;BME280;29070;48.102;-1.652;2023-01-16T11:38:44;99053.81;;;7.64;79.12
39949;BME280;29070;48.102;-1.652;2023-01-16T11:43:48;99060.34;;;7.55;78.34
39949;BME280;29070;48.102;-1.652;2023-01-16T11:49:32;99056.75;;;7.49;78.18
39949;BME280;29070;48.102;-1.652;2023-01-16T11:54:34;99035.28;;;7.47;78.26
39949;BME280;29070;48.102;-1.652;2023-01-16T12:15:59;99030.59;;;7.56;77.53
39949;BME280;29070;48.102;-1.652;2023-01-16T12:21:09;99031.88;;;7.65;77.45
39949;BME280;29070;48.102;-1.652;2023-01-16T12:26:20;99016.88;;;7.79;77.36
39949;BME280;29070;48.102;-1.652;2023-01-16T12:31:24;99011.22;;;7.82;74.27
39949;BME280;29070;48.102;-1.652;2023-01-16T12:41:51;99025.00;;;7.89;76.30
39949;BME280;29070;48.102;-1.652;2023-01-16T12:47:35;99014.69;;;7.94;75.37
39949;BME280;29070;48.102;-1.652;2023-01-16T12:58:10;99030.78;;;8.10;75.80
39949;BME280;29070;48.102;-1.652;2023-01-16T13:08:46;99025.53;;;8.10;75.40
39949;BME280;29070;48.102;-1.652;2023-01-16T13:14:04;99017.06;;;8.14;75.14
39949;BME280;29070;48.102;-1.652;2023-01-16T13:19:13;99011.06;;;8.26;75.84
39949;BME280;29070;48.102;-1.652;2023-01-16T13:24:21;99014.63;;;8.31;75.27
39949;BME280;29070;48.102;-1.652;2023-01-16T13:29:33;99017.94;;;8.38;75.12
39949;BME280;29070;48.102;-1.652;2023-01-16T13:34:38;99018.41;;;8.35;74.76
39949;BME280;29070;48.102;-1.652;2023-01-16T13:44:43;99010.38;;;8.49;74.87
39949;BME280;29070;48.102;-1.652;2023-01-16T14:00:28;99002.41;;;8.44;73.75
39949;BME280;29070;48.102;-1.652;2023-01-16T14:10:42;98989.91;;;8.46;73.41
39949;BME280;29070;48.102;-1.652;2023-01-16T14:31:47;99002.13;;;8.33;72.11
39949;BME280;29070;48.102;-1.652;2023-01-16T14:36:54;99001.09;;;8.34;72.68
39949;BME280;29070;48.102;-1.652;2023-01-16T14:41:58;99003.72;;;8.34;72.32
39949;BME280;29070;48.102;-1.652;2023-01-16T14:57:59;99011.88;;;8.26;71.58
39949;BME280;29070;48.102;-1.652;2023-01-16T15:03:12;99013.13;;;8.24;71.41
39949;BME280;29070;48.102;-1.652;2023-01-16T15:08:13;99007.94;;;8.35;72.02
39949;BME280;29070;48.102;-1.652;2023-01-16T15:18:18;99002.22;;;8.27;71.61
39949;BME280;29070;48.102;-1.652;2023-01-16T15:23:37;99005.94;;;8.19;71.38
39949;BME280;29070;48.102;-1.652;2023-01-16T15:34:20;98995.38;;;7.95;70.63
39949;BME280;29070;48.102;-1.652;2023-01-16T15:44:33;98998.75;;;7.84;71.18
39949;BME280;29070;48.102;-1.652;2023-01-16T15:50:02;98997.44;;;7.75;71.37
39949;BME280;29070;48.102;-1.652;2023-01-16T16:05:31;98980.91;;;7.62;71.62
39949;BME280;29070;48.102;-1.652;2023-01-16T16:10:35;98970.53;;;7.56;71.08
39949;BME280;29070;48.102;-1.652;2023-01-16T16:16:00;98979.88;;;7.45;70.95
39949;BME280;29070;48.102;-1.652;2023-01-16T16:21:21;98982.81;;;7.37;71.30
39949;BME280;29070;48.102;-1.652;2023-01-16T16:26:23;98973.44;;;7.29;71.38
39949;BME280;29070;48.102;-1.652;2023-01-16T16:36:57;98957.03;;;7.03;70.75
39949;BME280;29070;48.102;-1.652;2023-01-16T16:41:58;98957.06;;;6.97;71.25
39949;BME280;29070;48.102;-1.652;2023-01-16T16:47:28;98939.91;;;6.89;70.94
39949;BME280;29070;48.102;-1.652;2023-01-16T16:52:31;98927.69;;;6.83;71.51
39949;BME280;29070;48.102;-1.652;2023-01-16T16:57:44;98937.97;;;6.78;71.23
39949;BME280;29070;48.102;-1.652;2023-01-16T17:02:49;98925.03;;;6.71;71.33
39949;BME280;29070;48.102;-1.652;2023-01-16T17:07:52;98923.25;;;6.65;71.28
39949;BME280;29070;48.102;-1.652;2023-01-16T17:12:52;98919.91;;;6.58;71.43
39949;BME280;29070;48.102;-1.652;2023-01-16T17:17:54;98907.72;;;6.52;71.55
39949;BME280;29070;48.102;-1.652;2023-01-16T17:22:57;98915.22;;;6.41;71.86
39949;BME280;29070;48.102;-1.652;2023-01-16T17:27:57;98923.91;;;6.35;71.55
39949;BME280;29070;48.102;-1.652;2023-01-16T17:33:09;98916.31;;;6.27;71.86
39949;BME280;29070;48.102;-1.652;2023-01-16T17:38:17;98904.94;;;6.21;71.96
39949;BME280;29070;48.102;-1.652;2023-01-16T17:43:20;98909.56;;;6.19;71.71
39949;BME280;29070;48.102;-1.652;2023-01-16T17:48:39;98902.59;;;6.13;71.93
39949;BME280;29070;48.102;-1.652;2023-01-16T17:53:40;98900.25;;;6.05;71.81
39949;BME280;29070;48.102;-1.652;2023-01-16T17:58:41;98893.47;;;5.97;71.87
39949;BME280;29070;48.102;-1.652;2023-01-16T18:03:50;98892.69;;;5.90;71.95
39949;BME280;29070;48.102;-1.652;2023-01-16T18:09:07;98886.50;;;5.84;72.07
39949;BME280;29070;48.102;-1.652;2023-01-16T18:14:11;98881.75;;;5.75;72.05
39949;BME280;29070;48.102;-1.652;2023-01-16T18:19:31;98872.59;;;5.65;72.39
39949;BME280;29070;48.102;-1.652;2023-01-16T18:24:33;98873.63;;;5.58;71.95
39949;BME280;29070;48.102;-1.652;2023-01-16T18:29:35;98868.25;;;5.52;72.29
39949;BME280;29070;48.102;-1.652;2023-01-16T18:34:35;98850.09;;;5.46;72.16
39949;BME280;29070;48.102;-1.652;2023-01-16T18:39:36;98844.53;;;5.35;72.19
39949;BME280;29070;48.102;-1.652;2023-01-16T18:44:54;98836.94;;;5.27;72.51
39949;BME280;29070;48.102;-1.652;2023-01-16T18:50:14;98825.75;;;5.20;72.59
39949;BME280;29070;48.102;-1.652;2023-01-16T18:55:33;98821.81;;;5.11;72.76
39949;BME280;29070;48.102;-1.652;2023-01-16T19:00:52;98816.41;;;5.06;72.70
39949;BME280;29070;48.102;-1.652;2023-01-16T19:06:11;98806.84;;;5.00;73.10
39949;BME280;29070;48.102;-1.652;2023-01-16T19:11:11;98795.69;;;4.92;73.24
39949;BME280;29070;48.102;-1.652;2023-01-16T19:16:12;98801.88;;;4.91;73.21
39949;BME280;29070;48.102;-1.652;2023-01-16T19:21:32;98787.69;;;4.87;73.40
39949;BME280;29070;48.102;-1.652;2023-01-16T19:26:33;98793.94;;;4.80;73.31
39949;BME280;29070;48.102;-1.652;2023-01-16T19:31:34;98792.53;;;4.77;73.36
39949;BME280;29070;48.102;-1.652;2023-01-16T19:36:35;98772.38;;;4.72;73.62
39949;BME280;29070;48.102;-1.652;2023-01-16T19:41:37;98769.38;;;4.69;73.68
39949;BME280;29070;48.102;-1.652;2023-01-16T19:46:56;98769.38;;;4.62;73.71
39949;BME280;29070;48.102;-1.652;2023-01-16T19:51:57;98763.00;;;4.58;73.73
39949;BME280;29070;48.102;-1.652;2023-01-16T19:56:57;98755.44;;;4.50;73.72
39949;BME280;29070;48.102;-1.652;2023-01-16T20:02:00;98754.44;;;4.44;73.86
39949;BME280;29070;48.102;-1.652;2023-01-16T20:07:04;98747.84;;;4.42;73.89
39949;BME280;29070;48.102;-1.652;2023-01-16T20:12:08;98749.88;;;4.33;73.73
39949;BME280;29070;48.102;-1.652;2023-01-16T20:17:24;98749.50;;;4.23;73.89
39949;BME280;29070;48.102;-1.652;2023-01-16T20:22:26;98747.28;;;4.19;74.17
39949;BME280;29070;48.102;-1.652;2023-01-16T20:27:26;98735.13;;;4.13;74.27
39949;BME280;29070;48.102;-1.652;2023-01-16T20:32:27;98721.13;;;4.14;74.72
39949;BME280;29070;48.102;-1.652;2023-01-16T20:37:28;98713.16;;;4.09;74.38
39949;BME280;29070;48.102;-1.652;2023-01-16T20:42:28;98708.78;;;4.10;74.65
39949;BME280;29070;48.102;-1.652;2023-01-16T20:47:47;98703.59;;;4.03;74.59
39949;BME280;29070;48.102;-1.652;2023-01-16T20:52:49;98692.00;;;3.99;74.80
39949;BME280;29070;48.102;-1.652;2023-01-16T20:57:49;98689.22;;;3.94;74.91
39949;BME280;29070;48.102;-1.652;2023-01-16T21:02:50;98679.25;;;3.91;74.88
39949;BME280;29070;48.102;-1.652;2023-01-16T21:07:51;98658.88;;;3.88;74.96
39949;BME280;29070;48.102;-1.652;2023-01-16T21:12:52;98650.09;;;3.82;74.87
39949;BME280;29070;48.102;-1.652;2023-01-16T21:18:10;98637.53;;;3.79;75.10
39949;BME280;29070;48.102;-1.652;2023-01-16T21:23:29;98633.94;;;3.73;75.25
39949;BME280;29070;48.102;-1.652;2023-01-16T21:28:30;98630.56;;;3.73;75.30
39949;BME280;29070;48.102;-1.652;2023-01-16T21:33:30;98614.59;;;3.69;75.44
39949;BME280;29070;48.102;-1.652;2023-01-16T21:38:31;98597.44;;;3.68;75.37
39949;BME280;29070;48.102;-1.652;2023-01-16T21:43:31;98600.84;;;3.69;75.53
39949;BME280;29070;48.102;-1.652;2023-01-16T21:48:50;98594.84;;;3.68;75.62
39949;BME280;29070;48.102;-1.652;2023-01-16T21:53:50;98589.66;;;3.68;75.39
39949;BME280;29070;48.102;-1.652;2023-01-16T21:58:50;98600.84;;;3.69;75.86
39949;BME280;29070;48.102;-1.652;2023-01-16T22:03:52;98600.66;;;3.70;75.95
39949;BME280;29070;48.102;-1.652;2023-01-16T22:08:53;98585.06;;;3.70;76.16
39949;BME280;29070;48.102;-1.652;2023-01-16T22:13:54;98571.47;;;3.68;76.07
39949;BME280;29070;48.102;-1.652;2023-01-16T22:19:13;98576.66;;;3.68;76.33
39949;BME280;29070;48.102;-1.652;2023-01-16T22:24:23;98558.13;;;3.65;76.45
39949;BME280;29070;48.102;-1.652;2023-01-16T22:29:24;98558.13;;;3.65;76.49
39949;BME280;29070;48.102;-1.652;2023-01-16T22:34:24;98557.34;;;3.64;76.60
39949;BME280;29070;48.102;-1.652;2023-01-16T22:39:24;98551.94;;;3.66;76.95
39949;BME280;29070;48.102;-1.652;2023-01-16T22:44:25;98545.97;;;3.65;76.57
39949;BME280;29070;48.102;-1.652;2023-01-16T22:49:43;98544.38;;;3.64;76.56
39949;BME280;29070;48.102;-1.652;2023-01-16T22:54:44;98546.75;;;3.66;76.74
39949;BME280;29070;48.102;-1.652;2023-01-16T22:59:45;98548.34;;;3.67;76.89
39949;BME280;29070;48.102;-1.652;2023-01-16T23:04:45;98545.16;;;3.65;76.93
39949;BME280;29070;48.102;-1.652;2023-01-16T23:09:45;98537.81;;;3.61;76.98
39949;BME280;29070;48.102;-1.652;2023-01-16T23:14:46;98537.56;;;3.63;77.00
39949;BME280;29070;48.102;-1.652;2023-01-16T23:19:46;98524.44;;;3.58;77.17
39949;BME280;29070;48.102;-1.652;2023-01-16T23:24:46;98520.81;;;3.59;77.10
39949;BME280;29070;48.102;-1.652;2023-01-16T23:29:47;98517.25;;;3.60;77.37
39949;BME280;29070;48.102;-1.652;2023-01-16T23:34:47;98516.03;;;3.62;77.35
39949;BME280;29070;48.102;-1.652;2023-01-16T23:39:48;98507.25;;;3.63;77.62
39949;BME280;29070;48.102;-1.652;2023-01-16T23:44:49;98510.03;;;3.69;77.76
39949;BME280;29070;48.102;-1.652;2023-01-16T23:49:54;98498.84;;;3.68;77.47
39949;BME280;29070;48.102;-1.652;2023-01-16T23:54:54;98477.69;;;3.71;77.58
39949;BME280;29070;48.102;-1.652;2023-01-16T23:59:55;98484.06;;;3.75;77.64
